Time;durP1;ratioP1;P1;durP2;ratioP2;P2;SDS_P1;SDS_P2;PMS_P1;PMS_P2;Temp;Humidity;BMP_temperature;BMP_pressure;BME280_temperature;BME280_humidity;BME280_pressure;Samples;Min_cycle;Max_cycle;Signal;HPM_P1;HPM_P2
2022/03/20 00:01:14;;;;;;;3.70;3.37;;;;;;;;;;5115591;28;20195;-79
2022/03/20 00:03:41;;;;;;;3.80;3.13;;;;;;;;;;5114247;28;20707;-79
2022/03/20 00:06:08;;;;;;;3.90;3.40;;;;;;;;;;5114009;28;20436;-79
2022/03/20 00:08:37;;;;;;;3.87;3.57;;;;;;;;;;5125559;27;20372;-79
2022/03/20 00:11:04;;;;;;;4.80;3.90;;;;;;;;;;5135595;27;20194;-80
2022/03/20 00:13:31;;;;;;;3.97;3.57;;;;;;;;;;5135699;27;20212;-80
2022/03/20 00:15:59;;;;;;;4.33;3.83;;;;;;;;;;5135768;27;20269;-79
2022/03/20 00:18:27;;;;;;;3.50;2.97;;;;;;;;;;5135948;27;20206;-79
2022/03/20 00:20:55;;;;;;;4.37;3.43;;;;;;;;;;5135528;27;20199;-79
2022/03/20 00:23:23;;;;;;;3.73;3.40;;;;;;;;;;5135680;27;20674;-79
2022/03/20 00:25:53;;;;;;;6.07;3.53;;;;;;;;;;5135725;27;20190;-80
2022/03/20 00:28:23;;;;;;;3.43;3.13;;;;;;;;;;5135702;27;20201;-79
2022/03/20 00:30:50;;;;;;;4.80;4.30;;;;;;;;;;5135551;27;20198;-79
2022/03/20 00:33:17;;;;;;;4.60;3.70;;;;;;;;;;5135118;27;20321;-79
2022/03/20 00:35:45;;;;;;;5.10;3.80;;;;;;;;;;5127687;27;20449;-79
2022/03/20 00:38:12;;;;;;;3.63;2.70;;;;;;;;;;5115009;28;20468;-79
2022/03/20 00:40:39;;;;;;;4.73;3.10;;;;;;;;;;5114451;28;20433;-79
2022/03/20 00:43:08;;;;;;;3.60;3.30;;;;;;;;;;5114823;28;20826;-79
2022/03/20 00:45:36;;;;;;;4.63;3.77;;;;;;;;;;5114559;28;20594;-79
2022/03/20 00:48:04;;;;;;;4.93;4.00;;;;;;;;;;5114544;28;20227;-79
2022/03/20 00:50:31;;;;;;;3.93;3.53;;;;;;;;;;5114136;28;20290;-79
2022/03/20 00:52:58;;;;;;;5.20;4.03;;;;;;;;;;5114509;28;20444;-79
2022/03/20 00:55:25;;;;;;;4.30;3.87;;;;;;;;;;5114332;28;20253;-79
2022/03/20 00:57:53;;;;;;;5.80;3.47;;;;;;;;;;5114106;28;20957;-79
2022/03/20 01:00:21;;;;;;;5.03;3.47;;;;;;;;;;5114261;28;20196;-79
2022/03/20 01:02:48;;;;;;;4.57;3.93;;;;;;;;;;5114185;28;20508;-79
2022/03/20 01:05:16;;;;;;;5.03;3.63;;;;;;;;;;5114362;28;20274;-79
2022/03/20 01:07:43;;;;;;;3.93;3.27;;;;;;;;;;5114326;28;20282;-80
2022/03/20 01:10:12;;;;;;;3.97;3.27;;;;;;;;;;5114138;28;20687;-79
2022/03/20 01:12:40;;;;;;;3.30;3.00;;;;;;;;;;5114400;28;20441;-80
2022/03/20 01:15:12;;;;;;;5.10;3.67;;;;;;;;;;5114133;28;20249;-80
2022/03/20 01:17:41;;;;;;;3.70;3.30;;;;;;;;;;5114330;28;20183;-79
2022/03/20 01:20:11;;;;;;;3.03;2.73;;;;;;;;;;5114186;28;20196;-79
2022/03/20 01:22:40;;;;;;;5.30;3.50;;;;;;;;;;5113918;28;20219;-79
2022/03/20 01:25:09;;;;;;;4.13;3.57;;;;;;;;;;5114044;28;20293;-79
2022/03/20 01:27:37;;;;;;;7.20;4.00;;;;;;;;;;5113637;28;20203;-79
2022/03/20 01:30:06;;;;;;;5.60;3.53;;;;;;;;;;5113609;28;20195;-80
2022/03/20 01:32:33;;;;;;;4.33;3.60;;;;;;;;;;5113737;28;20532;-80
2022/03/20 01:35:01;;;;;;;6.30;3.90;;;;;;;;;;5113459;28;20310;-79
2022/03/20 01:37:29;;;;;;;3.63;3.23;;;;;;;;;;5113365;28;20206;-79
2022/03/20 01:39:56;;;;;;;3.77;3.07;;;;;;;;;;5113392;28;20524;-79
2022/03/20 01:42:23;;;;;;;3.57;3.23;;;;;;;;;;5113410;28;20564;-79
2022/03/20 01:44:52;;;;;;;4.87;3.57;;;;;;;;;;5113311;28;20469;-80
2022/03/20 01:47:19;;;;;;;4.57;3.50;;;;;;;;;;5113418;28;20203;-79
2022/03/20 01:49:46;;;;;;;4.00;3.60;;;;;;;;;;5113357;28;20445;-79
2022/03/20 01:52:24;;;;;;;4.23;3.60;;;;;;;;;;5113587;28;20200;-79
2022/03/20 01:54:51;;;;;;;3.83;3.40;;;;;;;;;;5112954;28;20421;-79
2022/03/20 01:57:20;;;;;;;3.60;2.80;;;;;;;;;;5113508;28;20652;-79
2022/03/20 01:59:47;;;;;;;5.13;3.47;;;;;;;;;;5113312;28;20244;-79
2022/03/20 02:02:15;;;;;;;3.10;2.70;;;;;;;;;;5113402;28;20662;-79
2022/03/20 02:04:42;;;;;;;7.50;2.93;;;;;;;;;;5112916;28;20282;-80
2022/03/20 02:07:09;;;;;;;4.33;3.50;;;;;;;;;;5112816;28;20441;-79
2022/03/20 02:09:38;;;;;;;3.50;3.20;;;;;;;;;;5112793;28;20532;-79
2022/03/20 02:12:07;;;;;;;3.57;3.27;;;;;;;;;;5113047;28;20234;-79
2022/03/20 02:14:34;;;;;;;3.67;3.17;;;;;;;;;;5112464;28;20231;-79
2022/03/20 02:17:02;;;;;;;4.97;3.33;;;;;;;;;;5112903;28;20282;-79
2022/03/20 02:19:29;;;;;;;3.57;3.20;;;;;;;;;;5112751;28;20274;-80
2022/03/20 02:21:58;;;;;;;4.03;3.20;;;;;;;;;;5112692;28;20218;-79
2022/03/20 02:24:35;;;;;;;4.47;3.27;;;;;;;;;;5112553;28;20231;-79
2022/03/20 02:27:15;;;;;;;4.73;3.27;;;;;;;;;;5113142;28;20236;-79
2022/03/20 02:29:43;;;;;;;5.63;3.57;;;;;;;;;;5112790;28;20187;-79
2022/03/20 02:32:12;;;;;;;4.03;3.37;;;;;;;;;;5112682;28;20286;-79
2022/03/20 02:34:40;;;;;;;5.07;3.70;;;;;;;;;;5112050;28;20235;-79
2022/03/20 02:37:09;;;;;;;3.60;3.20;;;;;;;;;;5112970;28;20199;-79
2022/03/20 02:39:37;;;;;;;5.63;3.40;;;;;;;;;;5112373;28;20622;-79
2022/03/20 02:42:06;;;;;;;3.97;3.43;;;;;;;;;;5112593;28;20215;-79
2022/03/20 02:44:48;;;;;;;4.73;3.53;;;;;;;;;;5112230;28;20672;-79
2022/03/20 02:47:20;;;;;;;5.90;3.20;;;;;;;;;;5112507;28;20520;-79
2022/03/20 02:49:49;;;;;;;4.80;4.20;;;;;;;;;;5112212;28;20199;-79
2022/03/20 02:52:18;;;;;;;4.70;3.53;;;;;;;;;;5112426;28;20757;-79
2022/03/20 02:54:46;;;;;;;4.80;3.57;;;;;;;;;;5112135;28;20195;-79
2022/03/20 02:57:13;;;;;;;4.40;3.97;;;;;;;;;;5112185;28;20437;-79
2022/03/20 02:59:40;;;;;;;4.03;3.37;;;;;;;;;;5111557;28;20199;-79
2022/03/20 03:02:11;;;;;;;5.40;3.80;;;;;;;;;;5112546;28;20203;-79
2022/03/20 03:04:41;;;;;;;3.50;3.10;;;;;;;;;;5112014;28;20199;-79
2022/03/20 03:07:08;;;;;;;3.60;3.30;;;;;;;;;;5112028;28;20227;-79
2022/03/20 03:12:22;;;;;;;4.20;3.47;;;;;;;;;;5112436;28;20260;-80
2022/03/20 03:17:34;;;;;;;4.67;4.00;;;;;;;;;;5112286;28;20685;-79
2022/03/20 03:20:02;;;;;;;5.27;3.40;;;;;;;;;;5111913;28;20195;-79
2022/03/20 03:22:30;;;;;;;4.33;4.00;;;;;;;;;;5111981;28;20745;-79
2022/03/20 03:24:58;;;;;;;4.20;3.90;;;;;;;;;;5111916;28;20187;-79
2022/03/20 03:27:26;;;;;;;7.47;3.83;;;;;;;;;;5111726;28;20441;-80
2022/03/20 03:29:53;;;;;;;3.97;3.53;;;;;;;;;;5112258;28;20199;-80
2022/03/20 03:32:20;;;;;;;4.13;3.73;;;;;;;;;;5112209;28;20623;-79
2022/03/20 03:37:33;;;;;;;5.53;4.23;;;;;;;;;;5111958;28;20175;-79
2022/03/20 03:40:03;;;;;;;4.93;4.37;;;;;;;;;;5111805;28;20702;-79
2022/03/20 03:42:31;;;;;;;5.83;3.87;;;;;;;;;;5111853;28;20539;-79
2022/03/20 03:44:58;;;;;;;6.57;4.40;;;;;;;;;;5111684;28;20195;-79
2022/03/20 03:47:26;;;;;;;5.23;4.23;;;;;;;;;;5111818;28;20196;-80
2022/03/20 03:49:53;;;;;;;5.87;4.00;;;;;;;;;;5111408;28;20195;-79
2022/03/20 03:52:20;;;;;;;4.60;4.20;;;;;;;;;;5111859;28;20199;-79
2022/03/20 03:54:48;;;;;;;4.60;4.00;;;;;;;;;;5111946;28;20598;-79
2022/03/20 03:57:19;;;;;;;6.50;4.10;;;;;;;;;;5111477;28;20290;-79
2022/03/20 03:59:46;;;;;;;7.10;4.13;;;;;;;;;;5111959;28;20625;-79
2022/03/20 04:02:14;;;;;;;5.17;4.53;;;;;;;;;;5111565;28;20238;-79
2022/03/20 04:04:42;;;;;;;7.67;4.73;;;;;;;;;;5111892;28;20568;-80
2022/03/20 04:07:09;;;;;;;5.80;5.23;;;;;;;;;;5111668;28;20195;-80
2022/03/20 04:09:37;;;;;;;5.43;4.33;;;;;;;;;;5111584;28;20287;-79
2022/03/20 04:12:05;;;;;;;5.60;4.63;;;;;;;;;;5114788;28;20237;-80
2022/03/20 04:14:34;;;;;;;5.53;4.83;;;;;;;;;;5115401;28;20274;-80
2022/03/20 04:17:01;;;;;;;8.23;6.60;;;;;;;;;;5114954;28;20433;-79
2022/03/20 04:19:28;;;;;;;7.13;5.77;;;;;;;;;;5115001;28;20286;-79
2022/03/20 04:21:55;;;;;;;7.63;4.80;;;;;;;;;;5115059;28;20283;-79
2022/03/20 04:24:22;;;;;;;5.27;4.77;;;;;;;;;;5115196;28;20230;-80
2022/03/20 04:26:50;;;;;;;6.07;4.53;;;;;;;;;;5114793;28;20286;-80
2022/03/20 04:29:20;;;;;;;5.63;5.03;;;;;;;;;;5114820;28;20648;-80
2022/03/20 04:31:49;;;;;;;10.30;4.53;;;;;;;;;;5114989;28;20195;-80
2022/03/20 04:34:16;;;;;;;5.93;4.37;;;;;;;;;;5114512;28;20318;-80
2022/03/20 04:36:44;;;;;;;6.60;5.00;;;;;;;;;;5114914;28;20206;-80
2022/03/20 04:39:11;;;;;;;5.77;4.50;;;;;;;;;;5114682;28;20282;-79
2022/03/20 04:41:38;;;;;;;6.03;4.50;;;;;;;;;;5114798;27;20290;-79
2022/03/20 04:44:12;;;;;;;5.07;4.30;;;;;;;;;;5114740;28;20563;-79
2022/03/20 04:46:39;;;;;;;7.17;5.83;;;;;;;;;;5114475;28;20180;-79
2022/03/20 05:00:07;;;;;;;4.90;3.87;;;;;;;;;;5114480;28;20729;-79
2022/03/20 05:02:35;;;;;;;4.90;4.13;;;;;;;;;;5114242;28;20425;-79
2022/03/20 05:05:04;;;;;;;6.13;4.70;;;;;;;;;;5113928;28;21044;-79
2022/03/20 05:07:32;;;;;;;5.40;4.50;;;;;;;;;;5114533;28;20571;-79
2022/03/20 05:15:30;;;;;;;5.33;4.13;;;;;;;;;;5114043;28;20404;-80
2022/03/20 05:17:58;;;;;;;6.97;3.97;;;;;;;;;;5114293;28;20587;-79
2022/03/20 05:20:26;;;;;;;4.40;4.00;;;;;;;;;;5114059;28;20195;-80
2022/03/20 05:22:54;;;;;;;7.00;4.83;;;;;;;;;;5113506;28;20206;-79
2022/03/20 05:25:22;;;;;;;6.47;4.37;;;;;;;;;;5113653;28;20633;-80
2022/03/20 05:27:49;;;;;;;10.83;4.30;;;;;;;;;;5113743;28;20229;-79
2022/03/20 05:30:16;;;;;;;6.70;4.37;;;;;;;;;;5113584;28;20290;-80
2022/03/20 05:32:43;;;;;;;12.43;7.37;;;;;;;;;;5113234;28;20297;-80
2022/03/20 05:35:11;;;;;;;4.70;3.33;;;;;;;;;;5113489;28;20183;-80
2022/03/20 05:37:40;;;;;;;5.87;4.17;;;;;;;;;;5113529;28;20278;-80
2022/03/20 05:40:08;;;;;;;3.97;3.57;;;;;;;;;;5113107;28;20227;-80
2022/03/20 05:42:36;;;;;;;4.83;3.80;;;;;;;;;;5113469;28;20195;-80
2022/03/20 05:45:03;;;;;;;6.67;4.33;;;;;;;;;;5112958;28;20276;-79
2022/03/20 05:47:31;;;;;;;4.77;3.93;;;;;;;;;;5114283;27;20687;-80
2022/03/20 05:49:59;;;;;;;4.87;4.37;;;;;;;;;;5122545;27;20663;-79
2022/03/20 05:52:27;;;;;;;5.33;4.43;;;;;;;;;;5130845;27;20758;-78
2022/03/20 05:54:55;;;;;;;4.73;4.23;;;;;;;;;;5133367;27;20286;-78
2022/03/20 06:00:16;;;;;;;5.27;4.23;;;;;;;;;;5133492;27;20252;-81
2022/03/20 06:02:44;;;;;;;4.37;3.83;;;;;;;;;;5133591;27;20722;-81
2022/03/20 06:05:11;;;;;;;9.27;5.87;;;;;;;;;;5133401;27;20226;-81
2022/03/20 06:07:41;;;;;;;18.90;9.87;;;;;;;;;;5133517;27;20194;-81
2022/03/20 06:10:11;;;;;;;13.77;8.60;;;;;;;;;;5133275;27;20206;-82
2022/03/20 06:12:39;;;;;;;10.17;7.57;;;;;;;;;;5133615;27;20206;-82
2022/03/20 06:15:08;;;;;;;9.87;6.27;;;;;;;;;;5133280;27;20199;-82
2022/03/20 06:17:38;;;;;;;25.37;14.63;;;;;;;;;;5133649;27;20195;-82
2022/03/20 06:20:07;;;;;;;12.07;8.37;;;;;;;;;;5130349;27;20584;-82
2022/03/20 06:22:49;;;;;;;;;;;;;;;;;;;;;
2022/03/20 06:25:33;;;;;;;14.97;7.83;;;;;;;;;;5132639;27;20245;-82
2022/03/20 06:28:02;;;;;;;10.20;5.30;;;;;;;;;;5132699;27;20194;-83
2022/03/20 06:30:34;;;;;;;14.17;8.57;;;;;;;;;;5132908;27;20195;-83
2022/03/20 06:33:02;;;;;;;10.33;5.53;;;;;;;;;;5132230;27;20234;-83
2022/03/20 06:35:29;;;;;;;9.47;6.30;;;;;;;;;;5133074;27;20255;-83
2022/03/20 06:37:57;;;;;;;6.83;4.73;;;;;;;;;;5133127;27;20238;-82
2022/03/20 06:40:24;;;;;;;14.67;5.30;;;;;;;;;;5130991;27;20194;-83
2022/03/20 06:42:53;;;;;;;4.53;3.80;;;;;;;;;;5121695;27;20263;-82
2022/03/20 06:45:20;;;;;;;4.37;3.77;;;;;;;;;;5132637;27;20223;-83
2022/03/20 06:47:48;;;;;;;5.27;4.00;;;;;;;;;;5133064;27;20202;-82
2022/03/20 06:50:15;;;;;;;5.90;4.53;;;;;;;;;;5132750;27;20294;-82
2022/03/20 06:52:43;;;;;;;3.90;3.53;;;;;;;;;;5133237;27;20281;-82
2022/03/20 06:55:12;;;;;;;4.87;3.73;;;;;;;;;;5132606;27;20190;-83
2022/03/20 06:57:42;;;;;;;5.83;3.43;;;;;;;;;;5132554;28;20195;-82
2022/03/20 07:00:12;;;;;;;4.70;3.87;;;;;;;;;;5132930;27;20202;-83
2022/03/20 07:02:39;;;;;;;6.10;4.50;;;;;;;;;;5132800;28;20214;-83
2022/03/20 07:05:08;;;;;;;3.70;3.33;;;;;;;;;;5132772;28;20309;-82
2022/03/20 07:07:35;;;;;;;4.23;3.37;;;;;;;;;;5132543;28;20282;-83
2022/03/20 07:10:03;;;;;;;6.43;4.27;;;;;;;;;;5132985;28;20251;-83
2022/03/20 07:12:30;;;;;;;5.90;4.40;;;;;;;;;;5132605;28;20754;-83
2022/03/20 07:14:57;;;;;;;3.20;2.90;;;;;;;;;;5132608;28;20233;-83
2022/03/20 07:17:26;;;;;;;5.43;3.77;;;;;;;;;;5132896;28;20202;-83
2022/03/20 07:19:54;;;;;;;4.87;4.07;;;;;;;;;;5132088;28;20248;-83
2022/03/20 07:22:23;;;;;;;6.83;2.70;;;;;;;;;;5132620;27;20198;-83
2022/03/20 07:24:51;;;;;;;6.07;3.97;;;;;;;;;;5132192;28;20222;-83
2022/03/20 07:30:03;;;;;;;6.53;3.90;;;;;;;;;;5132303;28;20173;-82
2022/03/20 07:32:32;;;;;;;4.37;3.43;;;;;;;;;;5132719;28;20195;-82
2022/03/20 07:34:59;;;;;;;4.83;3.47;;;;;;;;;;5132102;28;20233;-82
2022/03/20 07:37:26;;;;;;;5.03;3.20;;;;;;;;;;5132510;27;20202;-82
2022/03/20 07:39:53;;;;;;;4.53;3.97;;;;;;;;;;5132057;28;20247;-82
2022/03/20 07:42:23;;;;;;;4.20;3.67;;;;;;;;;;5132407;28;20714;-82
2022/03/20 07:44:51;;;;;;;4.97;4.47;;;;;;;;;;5133544;27;20309;-82
2022/03/20 07:47:20;;;;;;;4.60;3.43;;;;;;;;;;5136684;27;20749;-82
2022/03/20 07:49:49;;;;;;;4.37;3.97;;;;;;;;;;5136107;27;20573;-82
2022/03/20 07:52:18;;;;;;;3.87;3.57;;;;;;;;;;5136290;27;20237;-82
2022/03/20 07:54:45;;;;;;;4.70;3.50;;;;;;;;;;5136377;27;20187;-82
2022/03/20 07:57:13;;;;;;;4.20;3.83;;;;;;;;;;5136230;27;20197;-82
2022/03/20 07:59:41;;;;;;;4.63;3.70;;;;;;;;;;5135753;27;20198;-82
2022/03/20 08:02:08;;;;;;;5.83;3.70;;;;;;;;;;5136083;27;20744;-82
2022/03/20 08:04:35;;;;;;;4.57;3.27;;;;;;;;;;5135769;27;20258;-82
2022/03/20 08:07:05;;;;;;;4.30;3.90;;;;;;;;;;5135960;27;20286;-82
2022/03/20 08:09:32;;;;;;;5.93;3.90;;;;;;;;;;5136185;27;20224;-82
2022/03/20 08:12:01;;;;;;;4.67;4.27;;;;;;;;;;5135991;27;20191;-82
2022/03/20 08:14:28;;;;;;;4.00;3.60;;;;;;;;;;5135963;27;20194;-82
2022/03/20 08:16:55;;;;;;;5.97;4.13;;;;;;;;;;5136230;27;20217;-82
2022/03/20 08:19:24;;;;;;;4.57;3.70;;;;;;;;;;5135597;27;20663;-82
2022/03/20 08:21:52;;;;;;;8.27;5.17;;;;;;;;;;5135442;27;20198;-82
2022/03/20 08:24:21;;;;;;;5.67;4.80;;;;;;;;;;5135405;27;20222;-82
2022/03/20 08:26:48;;;;;;;5.60;3.87;;;;;;;;;;5135928;27;20271;-82
2022/03/20 08:29:16;;;;;;;4.97;4.13;;;;;;;;;;5135135;27;20199;-82
2022/03/20 08:31:47;;;;;;;5.33;4.57;;;;;;;;;;5135576;27;20659;-82
2022/03/20 08:34:15;;;;;;;4.37;3.97;;;;;;;;;;5135216;27;20233;-82
2022/03/20 08:36:42;;;;;;;8.03;5.37;;;;;;;;;;5135736;27;20277;-82
2022/03/20 08:39:09;;;;;;;4.67;3.73;;;;;;;;;;5134926;27;20593;-82
2022/03/20 08:41:38;;;;;;;6.53;4.40;;;;;;;;;;5135226;27;20195;-82
2022/03/20 08:44:08;;;;;;;6.43;3.63;;;;;;;;;;5134958;27;20309;-82
2022/03/20 08:46:35;;;;;;;5.07;4.10;;;;;;;;;;5135288;27;20757;-82
2022/03/20 08:49:06;;;;;;;6.37;3.83;;;;;;;;;;5134828;27;20194;-82
2022/03/20 08:51:33;;;;;;;6.27;3.93;;;;;;;;;;5135307;27;20691;-82
2022/03/20 08:54:01;;;;;;;7.20;3.87;;;;;;;;;;5135013;27;20241;-83
2022/03/20 08:56:28;;;;;;;5.40;4.83;;;;;;;;;;5134397;27;20632;-83
2022/03/20 08:58:57;;;;;;;5.50;4.07;;;;;;;;;;5134633;27;20205;-82
2022/03/20 09:01:24;;;;;;;4.13;3.73;;;;;;;;;;5134799;27;20198;-82
2022/03/20 09:03:52;;;;;;;4.53;4.10;;;;;;;;;;5133181;27;20203;-82
2022/03/20 09:06:19;;;;;;;6.70;5.43;;;;;;;;;;5154386;27;20670;-82
2022/03/20 09:08:46;;;;;;;5.90;4.10;;;;;;;;;;5155309;27;20193;-82
2022/03/20 09:11:14;;;;;;;4.37;3.97;;;;;;;;;;5134388;27;20278;-82
2022/03/20 09:13:41;;;;;;;7.50;4.00;;;;;;;;;;5129209;27;20737;-86
2022/03/20 09:19:00;;;;;;;4.60;4.10;;;;;;;;;;5132998;27;20186;-83
2022/03/20 09:21:28;;;;;;;7.97;4.83;;;;;;;;;;5131263;27;20931;-82
2022/03/20 09:23:55;;;;;;;4.37;3.70;;;;;;;;;;5126797;27;20199;-82
2022/03/20 09:26:22;;;;;;;4.57;3.70;;;;;;;;;;5133225;27;20206;-85
2022/03/20 09:28:49;;;;;;;8.30;5.73;;;;;;;;;;5132712;27;20202;-82
2022/03/20 09:31:19;;;;;;;4.40;3.83;;;;;;;;;;5130711;27;20195;-82
2022/03/20 09:33:46;;;;;;;4.60;3.67;;;;;;;;;;5130408;27;20230;-82
2022/03/20 09:36:13;;;;;;;5.73;4.70;;;;;;;;;;5133253;27;20186;-82
2022/03/20 09:38:41;;;;;;;11.03;4.50;;;;;;;;;;5132948;27;20203;-82
2022/03/20 09:41:11;;;;;;;6.00;3.57;;;;;;;;;;5132996;27;20194;-82
2022/03/20 09:43:40;;;;;;;4.20;3.30;;;;;;;;;;5133001;27;20226;-82
2022/03/20 09:46:07;;;;;;;6.10;4.77;;;;;;;;;;5133580;27;20274;-82
2022/03/20 09:48:36;;;;;;;5.87;3.63;;;;;;;;;;5134072;27;20195;-82
2022/03/20 09:51:05;;;;;;;4.23;3.67;;;;;;;;;;5133619;27;20194;-83
2022/03/20 09:53:32;;;;;;;4.30;3.90;;;;;;;;;;5133977;27;20685;-83
2022/03/20 09:56:00;;;;;;;10.33;3.63;;;;;;;;;;5133590;27;20297;-82
2022/03/20 09:58:30;;;;;;;3.50;3.20;;;;;;;;;;5133702;27;20259;-82
2022/03/20 10:00:57;;;;;;;4.20;3.20;;;;;;;;;;5133399;27;20659;-83
2022/03/20 10:03:26;;;;;;;6.23;4.63;;;;;;;;;;5133535;27;20194;-83
2022/03/20 10:06:15;;;;;;;4.30;4.00;;;;;;;;;;5133559;27;20222;-83
2022/03/20 10:09:02;;;;;;;5.57;4.40;;;;;;;;;;5133422;27;20647;-83
2022/03/20 10:11:29;;;;;;;4.03;3.63;;;;;;;;;;5133277;27;20183;-83
2022/03/20 10:14:15;;;;;;;4.87;4.07;;;;;;;;;;5133473;27;20205;-82
2022/03/20 10:16:44;;;;;;;5.80;4.47;;;;;;;;;;5133337;27;20218;-83
2022/03/20 10:19:27;;;;;;;4.80;3.93;;;;;;;;;;5133263;27;20623;-83
2022/03/20 10:21:58;;;;;;;8.77;6.33;;;;;;;;;;5133175;27;20195;-83
2022/03/20 10:24:27;;;;;;;4.97;4.53;;;;;;;;;;5133085;27;20179;-83
2022/03/20 10:27:08;;;;;;;8.33;6.13;;;;;;;;;;5133463;27;20658;-83
2022/03/20 10:29:36;;;;;;;6.73;4.40;;;;;;;;;;5133022;27;20658;-83
2022/03/20 10:32:08;;;;;;;5.80;5.17;;;;;;;;;;5133233;27;20209;-83
2022/03/20 10:34:48;;;;;;;5.97;4.87;;;;;;;;;;5132825;27;20718;-83
2022/03/20 10:37:17;;;;;;;7.07;5.17;;;;;;;;;;5133090;27;20187;-83
2022/03/20 10:39:46;;;;;;;4.83;3.93;;;;;;;;;;5132775;27;20187;-83
2022/03/20 10:42:13;;;;;;;4.93;3.70;;;;;;;;;;5132888;27;20195;-83
2022/03/20 10:44:41;;;;;;;5.37;4.70;;;;;;;;;;5133081;27;20246;-82
2022/03/20 10:47:13;;;;;;;5.73;4.17;;;;;;;;;;5132933;27;20198;-83
2022/03/20 10:49:41;;;;;;;6.70;3.73;;;;;;;;;;5133178;27;20183;-85
2022/03/20 10:52:10;;;;;;;6.63;5.50;;;;;;;;;;5132655;27;20195;-83
2022/03/20 10:54:43;;;;;;;4.80;4.30;;;;;;;;;;5132553;27;20671;-84
2022/03/20 10:57:11;;;;;;;6.67;4.67;;;;;;;;;;5132640;27;20262;-84
2022/03/20 10:59:39;;;;;;;4.80;4.23;;;;;;;;;;5133017;27;20267;-84
2022/03/20 11:02:08;;;;;;;4.93;4.23;;;;;;;;;;5133075;28;20655;-84
2022/03/20 11:04:36;;;;;;;8.63;4.83;;;;;;;;;;5132869;27;20218;-84
2022/03/20 11:07:07;;;;;;;6.70;4.87;;;;;;;;;;5132947;28;20247;-84
2022/03/20 11:09:34;;;;;;;8.50;6.73;;;;;;;;;;5132536;28;20265;-84
2022/03/20 11:12:07;;;;;;;6.83;5.63;;;;;;;;;;5132757;27;20198;-84
2022/03/20 11:14:35;;;;;;;6.97;4.67;;;;;;;;;;5132600;27;20175;-84
2022/03/20 11:17:04;;;;;;;9.73;4.83;;;;;;;;;;5132486;28;20190;-84
2022/03/20 11:19:33;;;;;;;6.40;4.97;;;;;;;;;;5133641;27;20203;-83
2022/03/20 11:22:02;;;;;;;5.57;4.60;;;;;;;;;;5136860;27;20803;-83
2022/03/20 11:24:30;;;;;;;6.27;4.80;;;;;;;;;;5136544;27;20251;-83
2022/03/20 11:27:01;;;;;;;6.00;5.00;;;;;;;;;;5136917;27;20194;-83
2022/03/20 11:29:31;;;;;;;4.83;4.43;;;;;;;;;;5136894;27;20206;-84
2022/03/20 11:32:01;;;;;;;5.67;4.77;;;;;;;;;;5137040;27;20624;-83
2022/03/20 11:34:29;;;;;;;5.57;4.60;;;;;;;;;;5136376;27;20230;-83
2022/03/20 11:37:04;;;;;;;9.90;5.10;;;;;;;;;;5136388;27;20675;-83
2022/03/20 11:39:31;;;;;;;5.97;4.90;;;;;;;;;;5136349;27;20194;-83
2022/03/20 11:42:23;;;;;;;6.67;4.83;;;;;;;;;;5136761;27;20576;-84
2022/03/20 11:45:18;;;;;;;7.90;5.83;;;;;;;;;;5136485;27;20194;-84
2022/03/20 11:47:46;;;;;;;4.87;4.43;;;;;;;;;;5136486;27;20179;-82
2022/03/20 11:50:19;;;;;;;7.33;5.30;;;;;;;;;;5136058;27;20202;-83
2022/03/20 11:52:50;;;;;;;5.50;5.00;;;;;;;;;;5136304;27;20214;-83
2022/03/20 11:55:29;;;;;;;6.07;5.47;;;;;;;;;;5136244;27;20650;-83
2022/03/20 11:57:56;;;;;;;6.93;5.40;;;;;;;;;;5136114;27;20191;-83
2022/03/20 12:00:27;;;;;;;5.97;5.00;;;;;;;;;;5136312;27;20195;-83
2022/03/20 12:03:11;;;;;;;6.20;4.90;;;;;;;;;;5136424;27;20734;-83
2022/03/20 12:05:49;;;;;;;5.67;5.17;;;;;;;;;;5135921;27;20214;-83
2022/03/20 12:08:27;;;;;;;9.10;5.03;;;;;;;;;;5136084;27;20183;-83
2022/03/20 12:11:02;;;;;;;7.00;5.33;;;;;;;;;;5135790;27;20190;-83
2022/03/20 12:13:33;;;;;;;7.10;6.13;;;;;;;;;;5136155;27;20597;-83
2022/03/20 12:16:01;;;;;;;6.83;6.13;;;;;;;;;;5135860;27;20206;-83
2022/03/20 12:18:29;;;;;;;7.60;5.40;;;;;;;;;;5135692;27;20201;-83
2022/03/20 12:21:09;;;;;;;6.00;5.00;;;;;;;;;;5135629;27;20202;-83
2022/03/20 12:23:44;;;;;;;9.03;7.50;;;;;;;;;;5135560;27;20658;-83
2022/03/20 12:26:43;;;;;;;7.23;5.63;;;;;;;;;;5135734;27;20206;-83
2022/03/20 12:29:29;;;;;;;7.53;6.13;;;;;;;;;;5135474;27;20182;-83
2022/03/20 12:32:01;;;;;;;13.10;8.43;;;;;;;;;;5134245;27;20203;-83
2022/03/20 12:34:30;;;;;;;12.03;9.63;;;;;;;;;;5135198;27;20315;-84
2022/03/20 12:37:37;;;;;;;11.43;9.30;;;;;;;;;;5135161;27;20195;-83
2022/03/20 12:40:10;;;;;;;11.13;8.10;;;;;;;;;;5129901;27;20277;-84
2022/03/20 12:42:39;;;;;;;7.33;5.60;;;;;;;;;;5135364;27;20579;-84
2022/03/20 12:45:08;;;;;;;22.57;15.13;;;;;;;;;;5132573;27;20194;-84
2022/03/20 12:47:37;;;;;;;8.90;7.53;;;;;;;;;;5135223;27;20199;-85
2022/03/20 12:50:07;;;;;;;7.77;6.97;;;;;;;;;;5135093;27;20194;-84
2022/03/20 12:52:35;;;;;;;6.27;5.67;;;;;;;;;;5135241;27;20628;-84
2022/03/20 12:55:05;;;;;;;7.23;4.83;;;;;;;;;;5135331;27;20289;-85
2022/03/20 12:57:40;;;;;;;6.50;5.40;;;;;;;;;;5135020;27;20289;-85
2022/03/20 13:00:10;;;;;;;6.60;5.10;;;;;;;;;;5134807;27;20186;-86
2022/03/20 13:03:04;;;;;;;6.70;6.00;;;;;;;;;;5135369;27;20206;-86
2022/03/20 13:05:34;;;;;;;5.40;4.90;;;;;;;;;;5134762;27;20242;-86
2022/03/20 13:08:02;;;;;;;6.30;4.60;;;;;;;;;;5134883;27;20197;-85
2022/03/20 13:10:37;;;;;;;5.40;4.80;;;;;;;;;;5134486;27;20551;-86
2022/03/20 13:13:06;;;;;;;8.77;6.13;;;;;;;;;;5135084;27;20190;-85
2022/03/20 13:15:34;;;;;;;5.10;4.47;;;;;;;;;;5134588;27;20198;-86
2022/03/20 13:18:05;;;;;;;5.90;5.13;;;;;;;;;;5134398;27;20202;-86
2022/03/20 13:20:33;;;;;;;6.77;6.07;;;;;;;;;;5134612;27;20190;-86
2022/03/20 13:23:08;;;;;;;7.40;6.40;;;;;;;;;;5134389;27;20685;-87
2022/03/20 13:25:39;;;;;;;15.20;10.20;;;;;;;;;;5134331;27;20208;-84
2022/03/20 13:28:06;;;;;;;12.57;8.77;;;;;;;;;;5134443;27;20183;-85
2022/03/20 13:30:35;;;;;;;14.17;11.40;;;;;;;;;;5134133;27;20194;-85
2022/03/20 13:33:05;;;;;;;14.13;9.97;;;;;;;;;;5134004;27;20329;-84
2022/03/20 13:35:32;;;;;;;6.00;5.40;;;;;;;;;;5134183;27;20183;-84
2022/03/20 13:38:00;;;;;;;12.90;6.87;;;;;;;;;;5134187;27;20194;-85
2022/03/20 13:40:29;;;;;;;9.77;6.13;;;;;;;;;;5133816;27;20191;-84
2022/03/20 13:42:56;;;;;;;11.70;6.53;;;;;;;;;;5133748;27;20197;-85
2022/03/20 13:45:25;;;;;;;11.83;7.07;;;;;;;;;;5133735;27;20234;-84
2022/03/20 13:47:53;;;;;;;11.67;8.97;;;;;;;;;;5134292;27;20194;-84
2022/03/20 13:50:22;;;;;;;7.30;5.50;;;;;;;;;;5133627;27;20587;-84
2022/03/20 13:52:51;;;;;;;9.43;6.80;;;;;;;;;;5134095;27;20218;-84
2022/03/20 13:55:20;;;;;;;14.57;8.47;;;;;;;;;;5134032;27;20206;-85
2022/03/20 13:57:53;;;;;;;7.53;5.23;;;;;;;;;;5133819;27;20190;-84
2022/03/20 14:00:22;;;;;;;14.83;6.00;;;;;;;;;;5133412;27;20675;-85
2022/03/20 14:02:52;;;;;;;7.37;6.53;;;;;;;;;;5133900;27;20187;-85
2022/03/20 14:05:25;;;;;;;6.40;5.77;;;;;;;;;;5133478;27;20226;-84
2022/03/20 14:08:05;;;;;;;8.87;5.03;;;;;;;;;;5133842;27;20187;-85
2022/03/20 14:10:32;;;;;;;6.10;5.07;;;;;;;;;;5133645;27;20175;-85
2022/03/20 14:13:24;;;;;;;7.47;5.77;;;;;;;;;;5133706;27;20195;-85
2022/03/20 14:15:55;;;;;;;6.60;5.50;;;;;;;;;;5133556;27;20179;-84
2022/03/20 14:18:23;;;;;;;7.20;4.83;;;;;;;;;;5133249;27;20205;-84
2022/03/20 14:20:51;;;;;;;5.73;5.13;;;;;;;;;;5133735;27;20217;-84
2022/03/20 14:23:19;;;;;;;5.50;5.00;;;;;;;;;;5133489;27;20282;-84
2022/03/20 14:25:48;;;;;;;5.93;5.03;;;;;;;;;;5133483;27;20568;-85
2022/03/20 14:28:16;;;;;;;5.90;4.50;;;;;;;;;;5133649;27;20244;-84
2022/03/20 14:41:52;;;;;;;7.93;5.13;;;;;;;;;;5133062;27;20178;-83
2022/03/20 14:44:21;;;;;;;6.27;5.30;;;;;;;;;;5133287;27;20190;-84
2022/03/20 14:46:52;;;;;;;9.13;5.77;;;;;;;;;;5133356;27;20656;-84
2022/03/20 14:49:21;;;;;;;5.93;4.77;;;;;;;;;;5132968;27;20633;-84
2022/03/20 14:51:51;;;;;;;7.30;5.23;;;;;;;;;;5132775;27;20686;-84
2022/03/20 14:54:18;;;;;;;11.67;5.17;;;;;;;;;;5132446;27;20625;-84
2022/03/20 14:56:46;;;;;;;5.67;4.83;;;;;;;;;;5132888;27;20229;-85
2022/03/20 14:59:13;;;;;;;6.80;5.47;;;;;;;;;;5132712;27;20717;-85
2022/03/20 15:01:43;;;;;;;5.83;4.67;;;;;;;;;;5132664;27;20202;-84
2022/03/20 15:04:12;;;;;;;8.83;4.67;;;;;;;;;;5133018;27;20203;-85
2022/03/20 15:06:42;;;;;;;5.23;4.70;;;;;;;;;;5132801;27;20271;-84
2022/03/20 15:11:56;;;;;;;7.97;6.47;;;;;;;;;;5132832;28;20174;-84
2022/03/20 15:14:23;;;;;;;7.93;5.83;;;;;;;;;;5132600;27;20203;-84
2022/03/20 15:16:51;;;;;;;6.60;5.00;;;;;;;;;;5133163;27;20191;-84
2022/03/20 15:19:18;;;;;;;6.23;5.63;;;;;;;;;;5132632;27;20201;-84
2022/03/20 15:21:45;;;;;;;10.13;6.53;;;;;;;;;;5132650;27;20702;-84
2022/03/20 15:24:14;;;;;;;6.57;4.40;;;;;;;;;;5132383;27;20282;-83
2022/03/20 15:26:42;;;;;;;6.83;5.67;;;;;;;;;;5132481;27;20219;-83
2022/03/20 15:29:10;;;;;;;8.27;6.87;;;;;;;;;;5132142;27;20198;-83
2022/03/20 15:31:37;;;;;;;6.47;5.63;;;;;;;;;;5132621;27;20202;-83
2022/03/20 15:34:05;;;;;;;6.93;6.23;;;;;;;;;;5132257;27;20235;-83
2022/03/20 15:36:35;;;;;;;7.13;5.87;;;;;;;;;;5132566;27;20197;-84
2022/03/20 15:39:09;;;;;;;7.57;5.33;;;;;;;;;;5132485;27;20286;-83
2022/03/20 15:41:39;;;;;;;5.37;4.57;;;;;;;;;;5132620;27;20223;-84
2022/03/20 15:44:07;;;;;;;9.73;5.30;;;;;;;;;;5132362;27;20339;-84